Time;durP1;ratioP1;P1;durP2;ratioP2;P2;SDS_P1;SDS_P2;PMS_P1;PMS_P2;Temp;Humidity;BMP_temperature;BMP_pressure;BME280_temperature;BME280_humidity;BME280_pressure;Samples;Min_cycle;Max_cycle;Signal;HPM_P1;HPM_P2
2021/03/27 00:00:13;;;;;;;129.52;73.70;;;6.00;99.90;;;;;;4974814;28;20070;-78
2021/03/27 00:02:46;;;;;;;80.68;48.65;;;6.20;99.90;;;;;;4974377;28;20122;-76
2021/03/27 00:05:20;;;;;;;111.15;63.88;;;6.00;99.90;;;;;;4984070;28;20033;-75
2021/03/27 00:08:07;;;;;;;68.85;37.90;;;6.30;99.90;;;;;;5008454;28;20053;-77
2021/03/27 00:10:59;;;;;;;54.60;34.78;;;6.10;99.90;;;;;;4985696;28;20026;-74
2021/03/27 00:13:43;;;;;;;54.95;33.03;;;5.40;99.90;;;;;;4993701;28;20049;-74
2021/03/27 00:16:36;;;;;;;58.72;32.42;;;5.20;99.90;;;;;;4994135;28;20452;-76
2021/03/27 00:19:10;;;;;;;61.75;31.15;;;5.70;99.90;;;;;;4934405;28;20440;-79
2021/03/27 00:21:39;;;;;;;54.25;31.58;;;5.40;99.90;;;;;;5010283;28;20042;-75
2021/03/27 00:24:17;;;;;;;57.80;33.65;;;5.50;99.90;;;;;;4990302;28;20088;-75
2021/03/27 00:26:55;;;;;;;54.47;28.75;;;5.40;99.90;;;;;;4993206;28;20022;-79
2021/03/27 00:29:30;;;;;;;43.45;28.30;;;5.50;99.90;;;;;;4993573;28;20034;-76
2021/03/27 00:32:10;;;;;;;48.72;30.02;;;5.30;99.90;;;;;;4993581;28;20026;-74
2021/03/27 00:34:39;;;;;;;39.65;25.05;;;5.20;99.90;;;;;;4991522;28;20383;-76
2021/03/27 00:37:17;;;;;;;39.03;22.80;;;5.30;99.90;;;;;;4980089;28;20061;-77
2021/03/27 00:39:54;;;;;;;38.67;22.65;;;5.20;99.90;;;;;;4992987;28;20081;-77
2021/03/27 00:42:28;;;;;;;30.15;18.50;;;5.20;99.90;;;;;;4993369;28;20025;-76
2021/03/27 00:44:59;;;;;;;25.30;17.77;;;5.20;99.90;;;;;;4992762;28;20073;-75
2021/03/27 00:47:28;;;;;;;28.60;17.95;;;5.10;99.90;;;;;;4993187;28;20053;-75
2021/03/27 00:50:05;;;;;;;25.92;17.67;;;5.20;99.90;;;;;;4992357;28;20029;-74
2021/03/27 00:52:37;;;;;;;31.80;18.45;;;5.20;99.90;;;;;;4973383;28;20019;-75
2021/03/27 00:55:12;;;;;;;26.98;18.75;;;5.00;99.90;;;;;;4973827;28;20027;-76
2021/03/27 00:57:41;;;;;;;25.17;16.70;;;5.00;99.90;;;;;;4994439;28;20034;-75
2021/03/27 01:00:15;;;;;;;25.85;16.85;;;5.10;99.90;;;;;;4993381;28;20042;-77
2021/03/27 01:02:54;;;;;;;29.90;18.42;;;4.70;99.90;;;;;;4992673;28;20157;-75
2021/03/27 01:05:23;;;;;;;30.58;17.75;;;4.70;99.90;;;;;;4993197;28;20023;-76
2021/03/27 01:07:51;;;;;;;30.25;18.05;;;4.70;99.90;;;;;;4992616;28;20045;-77
2021/03/27 01:10:32;;;;;;;30.02;20.48;;;4.60;99.90;;;;;;4975592;28;20026;-74
2021/03/27 01:13:01;;;;;;;30.88;20.38;;;4.70;99.90;;;;;;4975372;28;20052;-75
2021/03/27 01:15:30;;;;;;;33.45;21.80;;;4.80;99.90;;;;;;4992577;28;20030;-74
2021/03/27 01:18:00;;;;;;;36.38;20.27;;;4.70;99.90;;;;;;4992782;28;20030;-75
2021/03/27 01:20:36;;;;;;;37.50;20.80;;;4.80;99.90;;;;;;4992400;28;20070;-74
2021/03/27 01:23:03;;;;;;;32.80;21.08;;;4.80;99.90;;;;;;4992607;28;20033;-76
2021/03/27 01:25:32;;;;;;;38.30;21.52;;;5.00;99.90;;;;;;4992664;28;20030;-76
2021/03/27 01:28:03;;;;;;;37.38;19.15;;;5.00;99.90;;;;;;4974932;28;20030;-76
2021/03/27 01:30:52;;;;;;;31.02;21.38;;;4.80;99.90;;;;;;4992554;28;20081;-75
2021/03/27 01:33:29;;;;;;;32.05;20.23;;;4.70;99.90;;;;;;4942511;28;20031;-76
2021/03/27 01:36:21;;;;;;;32.38;19.58;;;4.80;99.90;;;;;;4992523;28;20026;-75
2021/03/27 01:39:00;;;;;;;35.67;20.48;;;5.00;99.90;;;;;;4992205;28;20106;-77
2021/03/27 01:41:47;;;;;;;29.75;19.15;;;5.10;99.90;;;;;;4992281;28;20026;-75
2021/03/27 01:44:39;;;;;;;28.10;17.27;;;4.70;99.90;;;;;;4974936;28;20030;-76
2021/03/27 01:47:44;;;;;;;31.60;19.02;;;4.50;99.90;;;;;;4992257;28;20022;-78
2021/03/27 01:50:27;;;;;;;29.40;18.67;;;4.60;99.90;;;;;;4990897;28;20549;-76
2021/03/27 01:53:08;;;;;;;26.40;18.00;;;4.70;99.90;;;;;;4991866;28;20030;-77
2021/03/27 01:55:52;;;;;;;;;;;4.80;99.90;;;;;;4975161;28;20354;-76
2021/03/27 01:58:36;;;;;;;28.00;17.80;;;4.80;99.90;;;;;;4972657;28;19906;-74
2021/03/27 02:01:12;;;;;;;26.25;17.58;;;4.60;99.90;;;;;;4973221;28;20047;-75
2021/03/27 02:03:41;;;;;;;27.90;17.25;;;4.70;99.90;;;;;;4971553;28;20478;-77
2021/03/27 02:06:22;;;;;;;29.70;18.17;;;4.70;99.90;;;;;;4971243;28;20606;-76
2021/03/27 02:09:04;;;;;;;33.25;19.92;;;4.80;99.90;;;;;;4972581;28;20105;-75
2021/03/27 02:11:47;;;;;;;29.15;19.25;;;5.00;99.90;;;;;;4972416;28;20098;-76
2021/03/27 02:14:48;;;;;;;36.53;20.70;;;4.70;99.90;;;;;;4954950;28;20394;-78
2021/03/27 02:17:16;;;;;;;33.90;22.25;;;4.60;99.90;;;;;;4972384;28;20027;-77
2021/03/27 02:20:21;;;;;;;39.70;23.38;;;4.80;99.90;;;;;;4971763;28;20039;-76
2021/03/27 02:23:08;;;;;;;43.45;23.60;;;4.30;99.90;;;;;;4972287;28;20035;-79
2021/03/27 02:26:00;;;;;;;41.50;25.60;;;4.20;99.90;;;;;;4972432;28;20033;-77
2021/03/27 02:29:03;;;;;;;41.58;25.73;;;4.10;99.90;;;;;;4972343;28;20067;-79
2021/03/27 02:31:41;;;;;;;39.45;24.23;;;4.10;99.90;;;;;;4954673;28;20050;-79
2021/03/27 02:34:22;;;;;;;38.03;24.75;;;4.10;99.90;;;;;;4972189;28;20382;-75
2021/03/27 02:37:01;;;;;;;37.00;22.73;;;4.30;99.90;;;;;;4972300;28;20019;-73
2021/03/27 02:39:49;;;;;;;37.85;22.90;;;4.10;99.90;;;;;;4971979;28;20089;-77
2021/03/27 02:42:41;;;;;;;31.75;21.63;;;4.20;99.90;;;;;;4955004;28;20049;-79
2021/03/27 02:45:16;;;;;;;34.65;20.70;;;4.20;99.90;;;;;;4971061;28;20383;-77
2021/03/27 02:47:50;;;;;;;34.30;20.92;;;4.10;99.90;;;;;;4972049;28;20383;-75
2021/03/27 02:50:33;;;;;;;37.92;21.52;;;3.80;99.90;;;;;;4972232;28;20402;-77
2021/03/27 02:53:18;;;;;;;36.35;20.23;;;4.00;99.90;;;;;;4971985;28;20445;-76
2021/03/27 02:55:49;;;;;;;30.60;19.95;;;3.90;99.90;;;;;;4971855;28;20030;-77
2021/03/27 02:58:31;;;;;;;37.65;22.23;;;4.20;99.90;;;;;;4972127;28;20023;-75
2021/03/27 03:01:39;;;;;;;32.58;20.70;;;4.20;99.90;;;;;;4971747;28;20118;-77
2021/03/27 03:04:18;;;;;;;33.30;21.42;;;4.20;99.90;;;;;;4951279;28;20035;-74
2021/03/27 03:07:02;;;;;;;34.53;20.63;;;3.90;99.90;;;;;;4971831;28;20522;-75
2021/03/27 03:09:42;;;;;;;28.52;17.38;;;3.60;99.90;;;;;;4972042;28;20027;-77
2021/03/27 03:12:20;;;;;;;;;;;3.90;99.90;;;;;;4972653;28;20364;-76
2021/03/27 03:15:15;;;;;;;25.17;15.68;;;3.90;99.90;;;;;;4973634;28;19917;-76
2021/03/27 03:17:55;;;;;;;23.65;15.25;;;3.90;99.90;;;;;;4966863;28;20038;-76
2021/03/27 03:20:53;;;;;;;22.57;15.53;;;3.80;99.90;;;;;;4975476;28;20039;-74
2021/03/27 03:23:21;;;;;;;24.25;13.82;;;3.80;99.90;;;;;;4967535;28;20434;-75
2021/03/27 03:26:13;;;;;;;17.67;12.93;;;3.70;99.90;;;;;;4974997;28;20050;-74
2021/03/27 03:28:58;;;;;;;19.80;12.82;;;3.60;99.90;;;;;;4975433;28;20030;-75
2021/03/27 03:31:59;;;;;;;19.45;12.73;;;3.70;99.90;;;;;;4975255;28;20035;-76
2021/03/27 03:34:51;;;;;;;20.70;13.48;;;3.90;99.90;;;;;;4975263;28;20057;-76
2021/03/27 03:37:32;;;;;;;21.45;13.50;;;4.00;99.90;;;;;;4956279;28;20449;-75
2021/03/27 03:40:07;;;;;;;;;;;3.60;99.90;;;;;;4975613;28;20552;-75
2021/03/27 03:43:19;;;;;;;22.27;13.77;;;3.60;99.90;;;;;;4975041;28;19953;-76
2021/03/27 03:46:00;;;;;;;19.13;12.93;;;3.50;99.90;;;;;;4973156;28;20046;-78
2021/03/27 03:48:37;;;;;;;;;;;3.60;99.90;;;;;;4975267;28;20031;-76
2021/03/27 03:51:37;;;;;;;19.08;12.15;;;3.50;99.90;;;;;;4974658;28;19906;-75
2021/03/27 03:54:21;;;;;;;20.20;13.77;;;3.00;99.90;;;;;;4973787;28;20045;-77
2021/03/27 03:57:14;;;;;;;22.67;13.02;;;3.40;99.90;;;;;;4987226;28;20025;-76
2021/03/27 03:59:51;;;;;;;20.92;13.45;;;3.60;99.90;;;;;;5013564;28;20100;-74
2021/03/27 04:02:35;;;;;;;20.20;13.73;;;3.50;99.90;;;;;;5014357;28;20044;-74
2021/03/27 04:05:12;;;;;;;20.23;13.43;;;3.60;99.90;;;;;;5013882;28;20033;-74
2021/03/27 04:07:47;;;;;;;19.77;13.68;;;3.60;99.90;;;;;;5013656;28;20022;-76
2021/03/27 04:10:17;;;;;;;20.58;15.30;;;3.80;99.90;;;;;;5013807;28;20089;-77
2021/03/27 04:13:10;;;;;;;18.85;13.50;;;3.90;99.90;;;;;;4996303;28;20026;-77
2021/03/27 04:15:54;;;;;;;20.70;14.77;;;3.80;99.90;;;;;;4987164;28;20046;-77
2021/03/27 04:18:35;;;;;;;19.52;13.77;;;3.70;99.90;;;;;;5013242;28;20017;-76
2021/03/27 04:21:08;;;;;;;24.63;16.05;;;3.80;99.90;;;;;;4995653;28;20097;-76
2021/03/27 04:23:59;;;;;;;25.88;15.68;;;3.60;99.90;;;;;;5013492;28;20026;-77
2021/03/27 04:26:34;;;;;;;24.80;16.10;;;3.70;99.90;;;;;;5012263;28;20022;-76
2021/03/27 04:29:11;;;;;;;24.23;16.88;;;3.60;99.90;;;;;;4995696;28;20060;-76
2021/03/27 04:32:05;;;;;;;31.42;18.98;;;3.40;99.90;;;;;;5013446;28;20022;-77
2021/03/27 04:34:39;;;;;;;29.17;18.17;;;3.20;99.90;;;;;;5013303;28;20030;-76
2021/03/27 04:37:26;;;;;;;29.60;19.30;;;3.00;99.90;;;;;;4995303;28;20025;-76
2021/03/27 04:40:09;;;;;;;31.83;18.92;;;2.90;99.90;;;;;;5013170;28;20116;-76
2021/03/27 04:42:49;;;;;;;31.83;19.25;;;3.20;99.90;;;;;;5012971;28;20073;-75
2021/03/27 04:45:23;;;;;;;35.07;20.23;;;3.40;99.90;;;;;;5013399;28;20096;-74
2021/03/27 04:48:26;;;;;;;29.13;19.15;;;3.20;99.90;;;;;;4995333;28;20624;-75
2021/03/27 04:51:02;;;;;;;34.88;19.92;;;3.40;99.90;;;;;;5012734;28;20033;-76
2021/03/27 04:53:43;;;;;;;30.67;20.77;;;3.30;99.90;;;;;;4995373;28;20022;-75
2021/03/27 04:56:29;;;;;;;32.20;19.90;;;3.20;99.90;;;;;;5012549;28;20362;-73
2021/03/27 04:59:04;;;;;;;34.10;21.38;;;3.30;99.90;;;;;;4993060;28;20050;-75
2021/03/27 05:01:54;;;;;;;32.45;19.48;;;3.40;99.90;;;;;;4992848;28;20030;-76
2021/03/27 05:04:56;;;;;;;28.52;19.85;;;3.30;99.90;;;;;;4993230;28;20740;-76
2021/03/27 05:08:07;;;;;;;30.67;19.30;;;3.50;99.90;;;;;;4992795;28;20026;-76
2021/03/27 05:10:52;;;;;;;36.72;19.75;;;3.50;99.90;;;;;;4992790;28;20033;-76
2021/03/27 05:13:48;;;;;;;25.73;18.80;;;3.40;99.90;;;;;;4992952;28;20384;-76
2021/03/27 05:16:19;;;;;;;33.03;20.05;;;3.60;99.90;;;;;;4980253;28;20081;-76
2021/03/27 05:18:59;;;;;;;33.50;19.55;;;3.70;99.90;;;;;;4993166;28;20027;-75
2021/03/27 05:21:25;;;;;;;;;;;3.00;99.90;;;;;;4992906;28;20038;-75
2021/03/27 05:24:27;;;;;;;34.08;20.38;;;3.40;99.90;;;;;;4992403;28;19960;-75
2021/03/27 05:27:16;;;;;;;23.05;18.05;;;3.60;99.90;;;;;;4974858;28;20444;-75
2021/03/27 05:30:02;;;;;;;35.50;17.88;;;4.00;99.90;;;;;;4992846;28;20058;-75
2021/03/27 05:32:47;;;;;;;32.05;19.10;;;3.90;99.90;;;;;;4992486;28;20023;-75
2021/03/27 05:35:41;;;;;;;27.25;18.20;;;3.80;99.90;;;;;;4992371;28;20385;-75
2021/03/27 05:38:09;;;;;;;29.98;19.27;;;3.70;99.90;;;;;;4974743;28;20033;-76
2021/03/27 05:40:59;;;;;;;29.30;18.85;;;3.80;99.90;;;;;;4992011;28;20045;-75
2021/03/27 05:43:44;;;;;;;28.77;17.95;;;4.00;99.90;;;;;;4992637;28;20018;-75
2021/03/27 05:46:28;;;;;;;25.35;17.23;;;4.20;99.90;;;;;;4992722;28;20042;-73
2021/03/27 05:49:30;;;;;;;24.65;16.77;;;4.10;99.90;;;;;;4992092;28;20030;-75
2021/03/27 05:52:39;;;;;;;22.38;16.00;;;4.10;99.90;;;;;;4992337;28;20355;-76
2021/03/27 05:55:24;;;;;;;24.13;15.18;;;3.90;99.90;;;;;;4992337;28;20029;-77
2021/03/27 05:58:11;;;;;;;19.70;14.88;;;4.30;99.90;;;;;;4986770;28;20029;-75
2021/03/27 06:00:51;;;;;;;21.75;15.13;;;4.00;99.90;;;;;;5011820;28;20440;-74
2021/03/27 06:03:45;;;;;;;18.35;13.27;;;4.20;99.90;;;;;;5011661;28;20029;-75
2021/03/27 06:06:46;;;;;;;23.25;15.52;;;4.60;99.90;;;;;;5011525;28;20026;-75
2021/03/27 06:09:56;;;;;;;21.52;14.93;;;4.70;99.90;;;;;;4994090;28;20030;-75
2021/03/27 06:12:31;;;;;;;24.15;14.40;;;4.40;99.90;;;;;;4988552;28;20069;-75
2021/03/27 06:15:20;;;;;;;25.95;15.10;;;4.60;99.90;;;;;;4994034;28;20034;-76
2021/03/27 06:18:07;;;;;;;25.23;15.57;;;4.90;99.90;;;;;;5011012;28;20022;-75
2021/03/27 06:20:44;;;;;;;27.23;16.15;;;4.80;99.90;;;;;;5010990;28;20129;-77
2021/03/27 06:23:37;;;;;;;23.30;15.98;;;4.90;99.90;;;;;;5011299;28;20041;-75
2021/03/27 06:26:27;;;;;;;25.80;16.67;;;5.20;99.90;;;;;;4994379;28;20018;-75
2021/03/27 06:29:01;;;;;;;29.80;17.67;;;5.40;99.90;;;;;;5010922;28;20030;-75
2021/03/27 06:31:50;;;;;;;28.00;17.38;;;5.50;99.90;;;;;;5011603;28;20108;-75
2021/03/27 06:34:38;;;;;;;25.73;17.58;;;5.60;99.90;;;;;;5009375;28;20061;-75
2021/03/27 06:37:44;;;;;;;27.70;17.50;;;5.50;99.90;;;;;;5010939;28;20041;-75
2021/03/27 06:40:37;;;;;;;27.98;18.45;;;5.60;99.90;;;;;;4950684;29;20039;-75
2021/03/27 06:43:05;;;;;;;28.52;16.80;;;5.60;99.90;;;;;;4934735;29;20360;-75
2021/03/27 06:45:49;;;;;;;26.92;19.35;;;5.50;99.90;;;;;;4991002;28;20054;-76
2021/03/27 06:48:49;;;;;;;31.15;19.60;;;5.70;99.90;;;;;;5011243;28;20018;-76
2021/03/27 06:51:41;;;;;;;31.08;21.23;;;5.90;99.90;;;;;;4997572;28;20029;-77
2021/03/27 06:54:25;;;;;;;29.15;19.73;;;5.70;99.90;;;;;;5015056;28;20389;-73
2021/03/27 06:57:15;;;;;;;34.05;20.20;;;5.80;99.90;;;;;;5011918;28;20038;-75
2021/03/27 07:00:02;;;;;;;31.25;17.92;;;5.90;99.90;;;;;;4977965;28;20069;-74
2021/03/27 07:03:03;;;;;;;30.38;18.65;;;6.00;99.90;;;;;;4995309;28;20033;-77
2021/03/27 07:06:10;;;;;;;29.35;19.65;;;6.00;99.90;;;;;;4977538;28;20030;-78
2021/03/27 07:08:56;;;;;;;83.60;45.85;;;6.00;99.90;;;;;;4992474;28;20026;-78
2021/03/27 07:11:59;;;;;;;106.93;57.95;;;7.20;99.90;;;;;;4977612;28;20443;-79
2021/03/27 07:14:25;;;;;;;30.02;22.98;;;7.40;99.90;;;;;;4994963;28;20539;-77
2021/03/27 07:17:19;;;;;;;33.40;21.65;;;6.60;99.70;;;;;;4976568;28;20038;-75
2021/03/27 07:20:22;;;;;;;33.85;21.38;;;6.40;99.90;;;;;;4986330;28;20045;-76
2021/03/27 07:23:02;;;;;;;36.58;22.48;;;6.50;99.90;;;;;;4972188;28;20042;-77
2021/03/27 07:25:38;;;;;;;36.28;22.95;;;6.30;99.90;;;;;;4961752;28;20092;-77
2021/03/27 07:28:16;;;;;;;36.60;22.40;;;6.60;99.90;;;;;;4952682;29;20054;-75
2021/03/27 07:31:08;;;;;;;35.00;23.33;;;6.50;99.90;;;;;;4953795;28;20394;-76
2021/03/27 07:34:07;;;;;;;39.70;24.45;;;6.50;99.90;;;;;;4938582;29;20126;-77
2021/03/27 07:37:02;;;;;;;32.97;22.50;;;6.40;99.90;;;;;;4937593;29;20054;-76
2021/03/27 07:39:37;;;;;;;33.78;23.25;;;6.50;99.90;;;;;;4949705;28;20035;-76
2021/03/27 07:42:24;;;;;;;32.20;21.73;;;6.70;99.90;;;;;;4972887;28;20031;-76
2021/03/27 07:45:00;;;;;;;33.22;21.65;;;6.70;99.90;;;;;;4972727;28;20122;-76
2021/03/27 07:48:23;;;;;;;33.83;21.10;;;6.90;99.90;;;;;;4971524;28;20776;-77
2021/03/27 07:51:19;;;;;;;29.15;19.85;;;7.10;99.90;;;;;;4895944;29;20061;-75
2021/03/27 07:54:04;;;;;;;32.08;20.83;;;7.30;99.90;;;;;;4883287;29;20032;-76
2021/03/27 07:56:44;;;;;;;29.33;20.30;;;7.20;99.60;;;;;;4968295;28;20031;-75
2021/03/27 07:59:41;;;;;;;29.63;19.33;;;7.10;99.30;;;;;;4970553;28;20121;-75
2021/03/27 08:02:31;;;;;;;29.40;18.80;;;7.20;99.60;;;;;;4992092;28;20038;-75
2021/03/27 08:05:18;;;;;;;25.75;17.63;;;7.40;97.60;;;;;;4991112;28;20030;-77
2021/03/27 08:08:09;;;;;;;26.48;18.02;;;7.40;97.30;;;;;;4958597;28;20548;-75
2021/03/27 08:10:47;;;;;;;25.65;16.55;;;7.40;98.10;;;;;;4956797;28;20026;-76
2021/03/27 08:13:39;;;;;;;23.92;14.57;;;7.60;95.90;;;;;;4974295;28;20027;-76
2021/03/27 08:16:31;;;;;;;24.90;16.10;;;7.50;93.50;;;;;;4926052;28;20572;-74
2021/03/27 08:19:08;;;;;;;23.20;15.05;;;7.70;94.90;;;;;;4958308;28;20404;-76
2021/03/27 08:22:15;;;;;;;21.20;15.57;;;7.80;94.40;;;;;;4985430;28;20081;-76
2021/03/27 08:24:51;;;;;;;24.17;15.55;;;8.10;94.10;;;;;;4975931;28;20030;-77
2021/03/27 08:27:50;;;;;;;25.67;16.50;;;8.50;92.50;;;;;;4988961;28;20033;-75
2021/03/27 08:31:00;;;;;;;22.52;15.57;;;8.80;92.40;;;;;;4987660;28;20030;-75
2021/03/27 08:33:35;;;;;;;21.45;15.95;;;9.10;90.80;;;;;;4993161;28;20433;-74
2021/03/27 08:36:07;;;;;;;19.58;14.18;;;9.30;90.10;;;;;;4992961;28;20105;-75
2021/03/27 08:38:51;;;;;;;21.52;14.57;;;9.50;87.90;;;;;;4973432;28;20022;-75
2021/03/27 08:41:20;;;;;;;22.15;15.30;;;9.90;86.10;;;;;;4973650;28;20041;-77
2021/03/27 08:44:19;;;;;;;21.38;14.98;;;10.10;85.30;;;;;;4992524;28;20112;-74
2021/03/27 08:47:25;;;;;;;20.63;14.90;;;10.40;82.90;;;;;;4984405;28;20042;-75
2021/03/27 08:50:18;;;;;;;19.50;13.95;;;10.80;80.30;;;;;;4969182;28;20085;-76
2021/03/27 08:53:16;;;;;;;18.85;13.23;;;10.60;75.20;;;;;;4953415;28;20039;-75
2021/03/27 08:55:51;;;;;;;19.70;14.52;;;11.10;77.00;;;;;;4955735;28;20103;-78
2021/03/27 08:58:26;;;;;;;21.55;12.95;;;11.20;74.40;;;;;;4971614;28;20022;-77
2021/03/27 09:01:29;;;;;;;22.10;13.90;;;11.50;72.80;;;;;;4991311;28;20433;-79
2021/03/27 09:04:32;;;;;;;18.70;11.30;;;11.50;69.00;;;;;;4973005;28;20520;-77
2021/03/27 09:07:08;;;;;;;18.70;12.65;;;11.70;65.80;;;;;;4989541;28;20027;-79
2021/03/27 09:09:54;;;;;;;19.25;11.80;;;12.00;66.00;;;;;;4992571;28;20018;-76
2021/03/27 09:12:44;;;;;;;18.10;11.45;;;12.40;65.00;;;;;;4990884;28;20501;-78
2021/03/27 09:15:25;;;;;;;16.70;12.37;;;12.70;62.70;;;;;;4985258;28;20046;-77
2021/03/27 09:18:09;;;;;;;16.15;11.43;;;12.50;62.80;;;;;;4975045;28;20264;-75
2021/03/27 09:20:49;;;;;;;23.77;12.20;;;12.10;63.10;;;;;;4983081;28;20047;-76
2021/03/27 09:23:15;;;;;;;;;;;12.60;64.30;;;;;;4980104;28;20026;-77
2021/03/27 09:26:14;;;;;;;17.90;12.27;;;13.10;63.90;;;;;;4992178;28;19906;-76
2021/03/27 09:28:52;;;;;;;18.33;12.27;;;13.60;62.20;;;;;;4950902;28;20030;-76
2021/03/27 09:31:55;;;;;;;23.02;15.77;;;13.40;61.20;;;;;;4981092;28;20035;-77
2021/03/27 09:34:58;;;;;;;59.15;36.85;;;14.40;64.80;;;;;;4982911;28;20065;-78
2021/03/27 09:37:48;;;;;;;32.42;22.15;;;15.30;63.40;;;;;;4968701;28;20030;-78
2021/03/27 09:40:33;;;;;;;21.52;13.75;;;15.90;60.20;;;;;;4952380;28;20391;-77
2021/03/27 09:43:13;;;;;;;19.48;14.77;;;15.40;56.10;;;;;;4972285;28;20022;-77
2021/03/27 09:46:13;;;;;;;21.55;14.23;;;15.00;56.50;;;;;;4978172;28;20039;-76
2021/03/27 09:48:44;;;;;;;20.42;15.05;;;15.40;57.00;;;;;;4978864;28;20027;-76
2021/03/27 09:51:46;;;;;;;18.25;12.90;;;15.40;56.90;;;;;;4969965;28;20039;-78
2021/03/27 09:54:17;;;;;;;18.85;12.63;;;15.10;56.20;;;;;;4971268;28;20450;-77
2021/03/27 09:57:05;;;;;;;19.27;13.75;;;15.20;55.90;;;;;;4971281;28;20379;-78
2021/03/27 09:59:45;;;;;;;25.63;13.80;;;16.20;55.10;;;;;;4934833;29;20480;-78
2021/03/27 10:02:29;;;;;;;20.23;12.85;;;16.50;54.20;;;;;;4969311;28;20349;-78
2021/03/27 10:05:01;;;;;;;73.07;45.05;;;16.70;54.30;;;;;;4952839;28;20101;-78
2021/03/27 10:07:48;;;;;;;41.58;27.83;;;16.80;53.50;;;;;;4952540;28;20031;-78
2021/03/27 10:10:58;;;;;;;24.63;17.38;;;16.80;54.40;;;;;;4970510;28;20038;-77
2021/03/27 10:13:33;;;;;;;15.57;11.30;;;17.00;52.00;;;;;;4881288;29;20041;-78
2021/03/27 10:15:59;;;;;;;17.67;11.30;;;15.90;52.30;;;;;;4878425;29;20080;-76
2021/03/27 10:18:37;;;;;;;24.45;11.70;;;15.40;53.50;;;;;;4906948;28;20042;-77
2021/03/27 10:21:12;;;;;;;15.68;10.05;;;15.70;54.10;;;;;;4983539;28;20061;-78
2021/03/27 10:23:49;;;;;;;20.35;10.57;;;15.80;52.70;;;;;;4973469;28;20109;-78
2021/03/27 10:26:30;;;;;;;16.88;10.82;;;16.10;53.10;;;;;;4973185;28;20436;-78
2021/03/27 10:32:20;;;;;;;14.85;9.35;;;16.80;51.90;;;;;;5009854;28;20034;-78
2021/03/27 10:34:53;;;;;;;13.63;9.70;;;16.90;50.50;;;;;;4992965;28;20041;-79
2021/03/27 10:37:36;;;;;;;16.52;11.55;;;16.60;49.90;;;;;;4998747;28;20033;-77
2021/03/27 10:40:14;;;;;;;14.38;10.50;;;16.40;50.70;;;;;;4997121;28;20038;-78
2021/03/27 10:42:47;;;;;;;13.90;8.73;;;16.80;49.80;;;;;;4990822;28;20026;-77
2021/03/27 10:45:22;;;;;;;14.43;8.65;;;16.70;49.40;;;;;;4994144;28;20049;-76
2021/03/27 10:48:05;;;;;;;12.73;8.35;;;16.80;48.80;;;;;;4995874;28;20481;-78
2021/03/27 10:50:50;;;;;;;11.00;7.03;;;17.00;46.90;;;;;;5007624;28;20041;-76
2021/03/27 10:53:25;;;;;;;12.00;7.63;;;17.30;47.10;;;;;;5010677;28;20057;-78
2021/03/27 10:56:29;;;;;;;11.77;7.25;;;17.10;47.90;;;;;;4992637;28;20034;-77
2021/03/27 10:59:36;;;;;;;9.80;6.30;;;17.40;46.90;;;;;;4970513;28;20043;-77
2021/03/27 11:02:49;;;;;;;10.73;6.72;;;17.10;46.10;;;;;;4977729;28;20054;-79
2021/03/27 11:05:38;;;;;;;25.00;17.02;;;17.40;46.00;;;;;;4887005;28;20052;-77
2021/03/27 11:08:18;;;;;;;22.75;16.00;;;17.90;45.00;;;;;;4991392;28;20049;-76
2021/03/27 11:10:44;;;;;;;;;;;17.90;48.40;;;;;;4992983;28;20029;-77
2021/03/27 11:13:32;;;;;;;25.33;16.42;;;17.20;44.20;;;;;;4970504;28;20282;-76
2021/03/27 11:16:13;;;;;;;18.42;12.43;;;18.50;46.90;;;;;;4990765;28;20034;-77
2021/03/27 11:19:09;;;;;;;14.18;9.80;;;19.30;45.90;;;;;;4981059;28;20378;-77
2021/03/27 11:22:08;;;;;;;51.88;35.33;;;19.00;44.70;;;;;;4972672;28;20043;-76
2021/03/27 11:24:40;;;;;;;85.95;54.33;;;19.30;44.80;;;;;;4970020;28;20037;-78
2021/03/27 11:27:41;;;;;;;45.08;30.98;;;19.60;42.80;;;;;;4976221;28;20034;-78
2021/03/27 11:30:10;;;;;;;13.55;9.30;;;19.90;43.60;;;;;;4954180;28;20043;-82
2021/03/27 11:33:02;;;;;;;14.10;8.88;;;19.70;41.90;;;;;;4990910;28;20446;-82
2021/03/27 11:35:45;;;;;;;11.65;7.53;;;20.00;42.50;;;;;;4973615;28;20486;-81
2021/03/27 11:38:43;;;;;;;15.82;7.68;;;20.20;41.60;;;;;;4961484;28;20378;-84
2021/03/27 11:41:30;;;;;;;11.02;7.43;;;19.80;41.60;;;;;;4974307;28;20114;-81
2021/03/27 11:44:23;;;;;;;11.27;7.78;;;19.80;41.40;;;;;;4976710;28;20573;-81
2021/03/27 11:47:24;;;;;;;10.52;7.28;;;20.20;42.20;;;;;;4973378;28;20057;-83
2021/03/27 11:50:18;;;;;;;10.70;7.03;;;20.00;42.10;;;;;;4957841;28;20375;-80
2021/03/27 11:53:11;;;;;;;11.30;7.70;;;19.90;42.20;;;;;;4974754;28;20027;-78
2021/03/27 11:55:48;;;;;;;9.15;6.35;;;20.50;41.20;;;;;;4973937;28;20018;-79
2021/03/27 11:58:35;;;;;;;10.27;5.88;;;20.30;40.90;;;;;;4980118;28;20073;-81
2021/03/27 12:01:08;;;;;;;11.57;6.65;;;20.40;40.60;;;;;;4992908;28;20342;-78
2021/03/27 12:03:59;;;;;;;9.43;5.80;;;19.50;41.60;;;;;;4976099;28;20061;-82
2021/03/27 12:07:07;;;;;;;9.02;5.43;;;19.40;41.40;;;;;;4985905;28;20097;-78
2021/03/27 12:09:46;;;;;;;8.32;5.70;;;18.80;41.70;;;;;;4973687;28;20228;-80
2021/03/27 12:12:35;;;;;;;8.55;5.53;;;19.60;41.40;;;;;;4971917;28;20027;-87
2021/03/27 12:15:19;;;;;;;8.85;5.13;;;20.10;40.60;;;;;;4959095;28;20046;-83
2021/03/27 12:18:15;;;;;;;8.38;5.15;;;19.80;40.60;;;;;;4980072;28;20030;-78
2021/03/27 12:20:54;;;;;;;9.80;5.57;;;20.10;40.40;;;;;;4983163;28;20141;-78
2021/03/27 12:23:46;;;;;;;7.63;4.80;;;20.40;40.30;;;;;;4976100;28;20022;-78
2021/03/27 12:26:31;;;;;;;9.02;4.95;;;20.40;39.00;;;;;;4976437;28;20026;-78
2021/03/27 12:29:06;;;;;;;7.30;4.72;;;20.10;39.70;;;;;;4993442;28;20023;-77
2021/03/27 12:31:48;;;;;;;8.25;5.03;;;20.20;39.80;;;;;;4976371;28;20481;-78
2021/03/27 12:34:59;;;;;;;8.60;5.50;;;20.20;39.90;;;;;;4993577;28;20030;-80
2021/03/27 12:37:41;;;;;;;9.02;5.15;;;21.10;39.70;;;;;;4956458;28;20038;-79
2021/03/27 12:40:28;;;;;;;9.02;5.05;;;21.60;39.90;;;;;;4993532;28;20034;-78
2021/03/27 12:43:16;;;;;;;8.32;4.90;;;21.20;38.60;;;;;;4976111;28;20018;-82
2021/03/27 12:46:08;;;;;;;9.95;4.88;;;20.50;38.60;;;;;;4993755;28;20031;-78
2021/03/27 12:48:48;;;;;;;10.43;5.22;;;20.30;39.10;;;;;;4992678;28;20102;-80
2021/03/27 12:51:45;;;;;;;7.32;4.85;;;20.90;39.20;;;;;;4993268;28;20077;-81
2021/03/27 12:54:36;;;;;;;8.02;4.72;;;21.30;37.60;;;;;;4975823;28;20026;-80
2021/03/27 12:57:36;;;;;;;9.27;5.03;;;21.90;37.20;;;;;;4993352;28;20121;-79
2021/03/27 13:00:38;;;;;;;7.90;4.40;;;22.90;36.40;;;;;;4973779;28;20051;-81
2021/03/27 13:03:33;;;;;;;8.55;4.53;;;22.90;36.40;;;;;;4974096;28;20054;-80
2021/03/27 13:06:32;;;;;;;9.15;4.75;;;23.10;35.60;;;;;;4972477;28;20031;-78
2021/03/27 13:09:13;;;;;;;7.63;4.83;;;22.50;35.40;;;;;;4973751;28;20329;-78
2021/03/27 13:11:57;;;;;;;6.85;4.78;;;23.10;35.60;;;;;;4973942;28;20101;-77
2021/03/27 13:14:54;;;;;;;9.05;4.75;;;24.30;35.10;;;;;;4973537;28;20049;-78
2021/03/27 13:17:57;;;;;;;10.57;4.90;;;24.30;34.00;;;;;;4973921;28;20106;-80
2021/03/27 13:20:42;;;;;;;8.05;4.55;;;23.50;34.60;;;;;;4973494;28;20054;-77
2021/03/27 13:23:10;;;;;;;7.57;4.70;;;23.00;34.90;;;;;;4973713;28;20390;-79
2021/03/27 13:25:50;;;;;;;7.25;4.55;;;22.50;34.80;;;;;;4973685;28;20022;-79
2021/03/27 13:28:23;;;;;;;7.97;5.10;;;22.80;34.80;;;;;;4973408;28;20033;-79
2021/03/27 13:31:15;;;;;;;8.63;4.55;;;23.50;34.60;;;;;;4973972;28;20023;-82
2021/03/27 13:34:04;;;;;;;8.73;4.90;;;22.00;34.20;;;;;;4973290;28;20122;-77
2021/03/27 13:36:46;;;;;;;7.97;4.95;;;21.60;35.10;;;;;;4972063;28;20441;-81
2021/03/27 13:39:37;;;;;;;8.77;4.78;;;21.70;35.40;;;;;;4973053;28;20019;-81
2021/03/27 13:42:15;;;;;;;7.40;4.60;;;22.20;36.10;;;;;;4956279;28;20089;-77
2021/03/27 13:44:43;;;;;;;7.55;4.68;;;21.90;35.70;;;;;;4972713;28;20106;-79
2021/03/27 13:47:33;;;;;;;8.30;4.65;;;22.80;35.50;;;;;;4972288;28;20054;-77
2021/03/27 13:50:16;;;;;;;7.70;4.55;;;22.70;35.80;;;;;;4972937;28;20106;-80
2021/03/27 13:53:04;;;;;;;8.45;5.07;;;22.60;34.80;;;;;;4973136;28;20077;-81
2021/03/27 13:55:49;;;;;;;8.93;4.60;;;21.80;35.50;;;;;;4973123;28;20089;-80
2021/03/27 13:58:25;;;;;;;8.07;4.63;;;22.00;36.20;;;;;;4980470;28;20022;-80
2021/03/27 14:01:04;;;;;;;8.05;5.00;;;22.60;35.80;;;;;;5011954;28;20034;-79
2021/03/27 14:03:54;;;;;;;8.85;4.95;;;22.10;35.10;;;;;;5012091;28;20040;-80
2021/03/27 14:06:38;;;;;;;6.97;4.55;;;22.80;35.40;;;;;;5011865;28;20381;-81
2021/03/27 14:09:08;;;;;;;8.65;4.60;;;23.30;35.10;;;;;;5011196;28;20034;-82
2021/03/27 14:11:55;;;;;;;8.38;5.30;;;23.20;34.30;;;;;;5011815;28;20377;-81